CheckWX is a tool to help pilots better visualize weather data.  It is not intended as a substitute for an official pre-flight weather briefing.

23:34:18 UTC

KMCF TAF
Macdill AFB Airport
Tampa, Florida, USA
TAF AMD KMCF 181752Z 1817/1923 06009KT 9999 SCT100 QNH2987INS BECMG 1821/1822 06010G20KT 8000 -SHRA VCTS BKN030CB QNH2984INS BECMG 1905/1906 09015G30KT 8000 -SHRA VCTS BKN010CB 510023 QNH2982INS TEMPO 1908/1920 VRB25G35KT 6000 TSRA BKN008CB BECMG 1922/1923 06009KT 9999 NSW BKN020 QNH2979INS TX25/1820Z TN22/1817Z

Oct-18@
17:00 UTC

Oct-18 @ 17:00 UTC

Oct-18@
21:00 UTC

Oct-18 @ 21:00 UTC

TAF AMD KMCF 181752Z 1817/1923 06009KT 9999 SCT100 QNH2987INS

Expired

Wind
  • 060° at 9 KTS
Cloud Levels
  • Scattered at 10,000' AGL

Oct-18@
21:00 UTC

Oct-18 @ 21:00 UTC

Oct-19@
05:00 UTC

Oct-19 @ 05:00 UTC

BECMG 1821/1822 06010G20KT 8000 -SHRA VCTS BKN030CB QNH2984INS

Becoming

Becoming Conditions expected by Fri, Oct 18, 2019 @ 22:00 UTC

Wind
  • 060° at 10 KTS
  • {Gusting to 20 KTS
Conditions
Light Rain, Area Thunderstorm
Cloud Levels
  • Broken at 3,000' AGL

Oct-19@
05:00 UTC

Oct-19 @ 05:00 UTC

Oct-19@
22:00 UTC

Oct-19 @ 22:00 UTC

BECMG 1905/1906 09015G30KT 8000 -SHRA VCTS BKN010CB 510023 QNH2982INS

Becoming

Becoming Conditions expected by Sat, Oct 19, 2019 @ 06:00 UTC

Wind
  • 090° at 15 KTS
  • {Gusting to 30 KTS
Conditions
Light Rain, Area Thunderstorm
Cloud Levels
  • Broken at 1,000' AGL
Turbulence
< Light turbulence expected at 200' AGL extending to 3,200' AGL

Oct-19@
08:00 UTC

Oct-19 @ 08:00 UTC

Oct-19@
20:00 UTC

Oct-19 @ 20:00 UTC

TEMPO 1908/1920 VRB25G35KT 6000 TSRA BKN008CB

Temporary

Temporary Changes expected for less than half the time period

Wind
  • Variable at 25 KTS
  • {Gusting to 35 KTS
Conditions
Thunderstorm, Rain
Cloud Levels
  • Broken at 800' AGL

Oct-19@
22:00 UTC

Oct-19 @ 22:00 UTC

Oct-19@
23:00 UTC

Oct-19 @ 23:00 UTC

BECMG 1922/1923 06009KT 9999 NSW BKN020 QNH2979INS TX25/1820Z TN22/1817Z

Becoming

Becoming Conditions expected by Sat, Oct 19, 2019 @ 23:00 UTC

Wind
  • 060° at 9 KTS
Conditions
No significant weather
Cloud Levels
  • Broken at 2,000' AGL